sensor_id;sensor_type;location;lat;lon;timestamp;P1;durP1;ratioP1;P2;durP2;ratioP2
20531;SDS011;10424;52.102;8.084;2023-11-21T00:00:14;32.30;;;16.75;;
20531;SDS011;10424;52.102;8.084;2023-11-21T00:02:42;32.60;;;17.35;;
20531;SDS011;10424;52.102;8.084;2023-11-21T00:05:10;32.78;;;18.38;;
20531;SDS011;10424;52.102;8.084;2023-11-21T00:07:40;32.33;;;17.80;;
20531;SDS011;10424;52.102;8.084;2023-11-21T00:10:08;33.45;;;17.55;;
20531;SDS011;10424;52.102;8.084;2023-11-21T00:12:35;32.60;;;17.45;;
20531;SDS011;10424;52.102;8.084;2023-11-21T00:15:04;34.45;;;16.30;;
20531;SDS011;10424;52.102;8.084;2023-11-21T00:17:34;30.10;;;17.73;;
20531;SDS011;10424;52.102;8.084;2023-11-21T00:20:01;27.77;;;16.60;;
20531;SDS011;10424;52.102;8.084;2023-11-21T00:22:31;30.25;;;16.65;;
20531;SDS011;10424;52.102;8.084;2023-11-21T00:24:59;34.60;;;16.83;;
20531;SDS011;10424;52.102;8.084;2023-11-21T00:27:26;28.83;;;15.90;;
20531;SDS011;10424;52.102;8.084;2023-11-21T00:29:53;31.15;;;16.40;;
20531;SDS011;10424;52.102;8.084;2023-11-21T00:32:22;33.33;;;16.20;;
20531;SDS011;10424;52.102;8.084;2023-11-21T00:34:49;26.02;;;15.90;;
20531;SDS011;10424;52.102;8.084;2023-11-21T00:37:16;29.08;;;16.33;;
20531;SDS011;10424;52.102;8.084;2023-11-21T00:39:43;30.17;;;15.48;;
20531;SDS011;10424;52.102;8.084;2023-11-21T00:42:11;35.30;;;17.08;;
20531;SDS011;10424;52.102;8.084;2023-11-21T00:44:38;32.72;;;15.75;;
20531;SDS011;10424;52.102;8.084;2023-11-21T00:47:05;29.23;;;15.38;;
20531;SDS011;10424;52.102;8.084;2023-11-21T00:49:34;29.35;;;15.63;;
20531;SDS011;10424;52.102;8.084;2023-11-21T00:52:02;33.15;;;16.23;;
20531;SDS011;10424;52.102;8.084;2023-11-21T00:54:29;30.63;;;15.52;;
20531;SDS011;10424;52.102;8.084;2023-11-21T00:56:56;28.38;;;14.98;;
20531;SDS011;10424;52.102;8.084;2023-11-21T00:59:23;27.17;;;15.35;;
20531;SDS011;10424;52.102;8.084;2023-11-21T01:01:51;31.80;;;16.10;;
20531;SDS011;10424;52.102;8.084;2023-11-21T01:04:19;28.80;;;14.93;;
20531;SDS011;10424;52.102;8.084;2023-11-21T01:06:48;34.20;;;16.25;;
20531;SDS011;10424;52.102;8.084;2023-11-21T01:09:15;31.52;;;16.38;;
20531;SDS011;10424;52.102;8.084;2023-11-21T01:11:43;28.00;;;15.68;;
20531;SDS011;10424;52.102;8.084;2023-11-21T01:14:11;32.78;;;16.83;;
20531;SDS011;10424;52.102;8.084;2023-11-21T01:16:38;37.70;;;17.48;;
20531;SDS011;10424;52.102;8.084;2023-11-21T01:19:05;36.60;;;18.58;;
20531;SDS011;10424;52.102;8.084;2023-11-21T01:21:34;34.33;;;18.38;;
20531;SDS011;10424;52.102;8.084;2023-11-21T01:24:03;34.40;;;17.33;;
20531;SDS011;10424;52.102;8.084;2023-11-21T01:26:32;32.65;;;17.98;;
20531;SDS011;10424;52.102;8.084;2023-11-21T01:28:59;33.40;;;17.45;;
20531;SDS011;10424;52.102;8.084;2023-11-21T01:31:27;32.03;;;18.30;;
20531;SDS011;10424;52.102;8.084;2023-11-21T01:33:55;33.17;;;18.60;;
20531;SDS011;10424;52.102;8.084;2023-11-21T01:36:22;31.00;;;17.95;;
20531;SDS011;10424;52.102;8.084;2023-11-21T01:38:49;34.10;;;18.25;;
20531;SDS011;10424;52.102;8.084;2023-11-21T01:41:18;35.50;;;18.63;;
20531;SDS011;10424;52.102;8.084;2023-11-21T01:43:45;33.75;;;17.45;;
20531;SDS011;10424;52.102;8.084;2023-11-21T01:46:12;34.30;;;17.45;;
20531;SDS011;10424;52.102;8.084;2023-11-21T01:48:40;28.92;;;16.92;;
20531;SDS011;10424;52.102;8.084;2023-11-21T01:51:08;35.05;;;17.17;;
20531;SDS011;10424;52.102;8.084;2023-11-21T01:53:35;30.60;;;17.45;;
20531;SDS011;10424;52.102;8.084;2023-11-21T01:56:03;33.10;;;17.42;;
20531;SDS011;10424;52.102;8.084;2023-11-21T01:58:33;31.75;;;17.67;;
20531;SDS011;10424;52.102;8.084;2023-11-21T02:01:01;35.70;;;17.38;;
20531;SDS011;10424;52.102;8.084;2023-11-21T02:03:28;33.50;;;17.48;;
20531;SDS011;10424;52.102;8.084;2023-11-21T02:05:56;35.40;;;17.77;;
20531;SDS011;10424;52.102;8.084;2023-11-21T02:08:23;32.33;;;16.88;;
20531;SDS011;10424;52.102;8.084;2023-11-21T02:10:52;35.58;;;17.08;;
20531;SDS011;10424;52.102;8.084;2023-11-21T02:13:19;33.58;;;17.15;;
20531;SDS011;10424;52.102;8.084;2023-11-21T02:15:47;30.58;;;17.00;;
20531;SDS011;10424;52.102;8.084;2023-11-21T02:18:17;34.13;;;16.60;;
20531;SDS011;10424;52.102;8.084;2023-11-21T02:20:44;32.00;;;16.55;;
20531;SDS011;10424;52.102;8.084;2023-11-21T02:23:13;31.42;;;16.67;;
20531;SDS011;10424;52.102;8.084;2023-11-21T02:25:41;30.23;;;16.58;;
20531;SDS011;10424;52.102;8.084;2023-11-21T02:28:08;33.50;;;16.63;;
20531;SDS011;10424;52.102;8.084;2023-11-21T02:30:37;33.03;;;17.58;;
20531;SDS011;10424;52.102;8.084;2023-11-21T02:33:05;34.20;;;17.95;;
20531;SDS011;10424;52.102;8.084;2023-11-21T02:35:32;33.20;;;17.38;;
20531;SDS011;10424;52.102;8.084;2023-11-21T02:38:00;32.63;;;17.35;;
20531;SDS011;10424;52.102;8.084;2023-11-21T02:40:28;32.30;;;17.58;;
20531;SDS011;10424;52.102;8.084;2023-11-21T02:42:56;34.17;;;17.60;;
20531;SDS011;10424;52.102;8.084;2023-11-21T02:45:24;32.45;;;16.52;;
20531;SDS011;10424;52.102;8.084;2023-11-21T02:47:51;35.03;;;17.58;;
20531;SDS011;10424;52.102;8.084;2023-11-21T02:50:22;33.92;;;16.77;;
20531;SDS011;10424;52.102;8.084;2023-11-21T02:52:49;32.58;;;17.08;;
20531;SDS011;10424;52.102;8.084;2023-11-21T02:55:16;31.55;;;16.75;;
20531;SDS011;10424;52.102;8.084;2023-11-21T02:57:45;34.55;;;17.33;;
20531;SDS011;10424;52.102;8.084;2023-11-21T03:00:12;32.33;;;17.42;;
20531;SDS011;10424;52.102;8.084;2023-11-21T03:02:40;31.85;;;17.48;;
20531;SDS011;10424;52.102;8.084;2023-11-21T03:05:08;36.28;;;18.05;;
20531;SDS011;10424;52.102;8.084;2023-11-21T03:07:36;38.90;;;19.10;;
20531;SDS011;10424;52.102;8.084;2023-11-21T03:10:03;35.28;;;18.08;;
20531;SDS011;10424;52.102;8.084;2023-11-21T03:12:31;35.13;;;18.92;;
20531;SDS011;10424;52.102;8.084;2023-11-21T03:14:59;36.05;;;18.17;;
20531;SDS011;10424;52.102;8.084;2023-11-21T03:17:27;35.47;;;18.77;;
20531;SDS011;10424;52.102;8.084;2023-11-21T03:19:55;36.65;;;17.88;;
20531;SDS011;10424;52.102;8.084;2023-11-21T03:22:22;32.55;;;17.40;;
20531;SDS011;10424;52.102;8.084;2023-11-21T03:24:50;32.85;;;17.65;;
20531;SDS011;10424;52.102;8.084;2023-11-21T03:27:17;38.33;;;18.52;;
20531;SDS011;10424;52.102;8.084;2023-11-21T03:29:45;36.03;;;17.58;;
20531;SDS011;10424;52.102;8.084;2023-11-21T03:32:13;38.30;;;18.27;;
20531;SDS011;10424;52.102;8.084;2023-11-21T03:34:52;34.33;;;17.90;;
20531;SDS011;10424;52.102;8.084;2023-11-21T03:37:20;32.55;;;18.00;;
20531;SDS011;10424;52.102;8.084;2023-11-21T03:39:47;32.38;;;18.02;;
20531;SDS011;10424;52.102;8.084;2023-11-21T03:42:15;36.60;;;18.10;;
20531;SDS011;10424;52.102;8.084;2023-11-21T03:44:42;36.38;;;17.45;;
20531;SDS011;10424;52.102;8.084;2023-11-21T03:47:09;35.40;;;18.02;;
20531;SDS011;10424;52.102;8.084;2023-11-21T03:49:38;34.30;;;17.10;;
20531;SDS011;10424;52.102;8.084;2023-11-21T03:52:05;34.60;;;17.30;;
20531;SDS011;10424;52.102;8.084;2023-11-21T03:54:34;34.53;;;17.90;;
20531;SDS011;10424;52.102;8.084;2023-11-21T03:57:02;32.10;;;17.63;;
20531;SDS011;10424;52.102;8.084;2023-11-21T03:59:29;32.83;;;17.98;;
20531;SDS011;10424;52.102;8.084;2023-11-21T04:01:57;36.08;;;17.63;;
20531;SDS011;10424;52.102;8.084;2023-11-21T04:04:24;35.33;;;17.10;;
20531;SDS011;10424;52.102;8.084;2023-11-21T04:06:52;32.97;;;16.75;;
20531;SDS011;10424;52.102;8.084;2023-11-21T04:09:20;34.58;;;17.50;;
20531;SDS011;10424;52.102;8.084;2023-11-21T04:11:50;33.13;;;16.92;;
20531;SDS011;10424;52.102;8.084;2023-11-21T04:14:17;35.45;;;17.45;;
20531;SDS011;10424;52.102;8.084;2023-11-21T04:16:44;35.00;;;17.30;;
20531;SDS011;10424;52.102;8.084;2023-11-21T04:19:12;34.58;;;17.40;;
20531;SDS011;10424;52.102;8.084;2023-11-21T04:21:40;35.90;;;18.52;;
20531;SDS011;10424;52.102;8.084;2023-11-21T04:24:09;39.13;;;18.40;;
20531;SDS011;10424;52.102;8.084;2023-11-21T04:26:37;36.40;;;17.88;;
20531;SDS011;10424;52.102;8.084;2023-11-21T04:29:04;39.30;;;17.52;;
20531;SDS011;10424;52.102;8.084;2023-11-21T04:31:31;36.75;;;16.63;;
20531;SDS011;10424;52.102;8.084;2023-11-21T04:33:59;37.40;;;17.25;;
20531;SDS011;10424;52.102;8.084;2023-11-21T04:36:26;37.47;;;16.42;;
20531;SDS011;10424;52.102;8.084;2023-11-21T04:38:55;34.55;;;16.63;;
20531;SDS011;10424;52.102;8.084;2023-11-21T04:41:24;37.63;;;16.88;;
20531;SDS011;10424;52.102;8.084;2023-11-21T04:43:52;37.83;;;16.40;;
20531;SDS011;10424;52.102;8.084;2023-11-21T04:46:19;34.97;;;16.35;;
20531;SDS011;10424;52.102;8.084;2023-11-21T04:48:46;38.75;;;16.83;;
20531;SDS011;10424;52.102;8.084;2023-11-21T04:51:14;38.35;;;17.13;;
20531;SDS011;10424;52.102;8.084;2023-11-21T04:53:41;39.33;;;16.58;;
20531;SDS011;10424;52.102;8.084;2023-11-21T04:56:08;37.90;;;15.75;;
20531;SDS011;10424;52.102;8.084;2023-11-21T04:58:37;35.97;;;16.48;;
20531;SDS011;10424;52.102;8.084;2023-11-21T05:01:05;37.55;;;16.33;;
20531;SDS011;10424;52.102;8.084;2023-11-21T05:03:32;36.05;;;16.90;;
20531;SDS011;10424;52.102;8.084;2023-11-21T05:06:00;33.42;;;16.17;;
20531;SDS011;10424;52.102;8.084;2023-11-21T05:08:27;33.55;;;16.25;;
20531;SDS011;10424;52.102;8.084;2023-11-21T05:10:55;37.10;;;15.57;;
20531;SDS011;10424;52.102;8.084;2023-11-21T05:13:22;37.80;;;16.15;;
20531;SDS011;10424;52.102;8.084;2023-11-21T05:15:54;40.08;;;16.70;;
20531;SDS011;10424;52.102;8.084;2023-11-21T05:18:21;38.97;;;16.42;;
20531;SDS011;10424;52.102;8.084;2023-11-21T05:20:52;36.10;;;16.42;;
20531;SDS011;10424;52.102;8.084;2023-11-21T05:23:19;37.55;;;16.73;;
20531;SDS011;10424;52.102;8.084;2023-11-21T05:25:47;37.88;;;17.50;;
20531;SDS011;10424;52.102;8.084;2023-11-21T05:28:14;38.95;;;16.90;;
20531;SDS011;10424;52.102;8.084;2023-11-21T05:30:41;38.65;;;16.58;;
20531;SDS011;10424;52.102;8.084;2023-11-21T05:33:10;36.30;;;16.02;;
20531;SDS011;10424;52.102;8.084;2023-11-21T05:35:37;42.00;;;16.92;;
20531;SDS011;10424;52.102;8.084;2023-11-21T05:38:05;37.70;;;17.20;;
20531;SDS011;10424;52.102;8.084;2023-11-21T05:40:32;39.10;;;16.33;;
20531;SDS011;10424;52.102;8.084;2023-11-21T05:42:59;43.95;;;18.48;;
20531;SDS011;10424;52.102;8.084;2023-11-21T05:45:27;43.42;;;17.38;;
20531;SDS011;10424;52.102;8.084;2023-11-21T05:47:55;42.35;;;16.05;;
20531;SDS011;10424;52.102;8.084;2023-11-21T05:50:23;43.00;;;16.65;;
20531;SDS011;10424;52.102;8.084;2023-11-21T05:52:52;37.75;;;16.02;;
20531;SDS011;10424;52.102;8.084;2023-11-21T05:55:22;46.38;;;16.67;;
20531;SDS011;10424;52.102;8.084;2023-11-21T05:57:50;45.90;;;15.82;;
20531;SDS011;10424;52.102;8.084;2023-11-21T06:00:18;41.83;;;17.10;;
20531;SDS011;10424;52.102;8.084;2023-11-21T06:02:47;44.58;;;17.65;;
20531;SDS011;10424;52.102;8.084;2023-11-21T06:05:16;44.90;;;16.63;;
20531;SDS011;10424;52.102;8.084;2023-11-21T06:07:45;53.38;;;16.70;;
20531;SDS011;10424;52.102;8.084;2023-11-21T06:10:12;44.78;;;15.60;;
20531;SDS011;10424;52.102;8.084;2023-11-21T06:12:40;44.28;;;15.75;;
20531;SDS011;10424;52.102;8.084;2023-11-21T06:15:08;50.17;;;15.43;;
20531;SDS011;10424;52.102;8.084;2023-11-21T06:17:38;49.58;;;16.60;;
20531;SDS011;10424;52.102;8.084;2023-11-21T06:20:06;53.30;;;16.40;;
20531;SDS011;10424;52.102;8.084;2023-11-21T06:22:35;47.72;;;15.82;;
20531;SDS011;10424;52.102;8.084;2023-11-21T06:25:04;44.58;;;15.82;;
20531;SDS011;10424;52.102;8.084;2023-11-21T06:27:33;55.35;;;16.98;;
20531;SDS011;10424;52.102;8.084;2023-11-21T06:30:01;50.38;;;15.88;;
20531;SDS011;10424;52.102;8.084;2023-11-21T06:32:28;48.67;;;15.27;;
20531;SDS011;10424;52.102;8.084;2023-11-21T06:34:56;49.03;;;16.67;;
20531;SDS011;10424;52.102;8.084;2023-11-21T06:37:24;49.00;;;16.13;;
20531;SDS011;10424;52.102;8.084;2023-11-21T06:39:52;48.10;;;16.25;;
20531;SDS011;10424;52.102;8.084;2023-11-21T06:42:20;53.47;;;17.33;;
20531;SDS011;10424;52.102;8.084;2023-11-21T06:44:49;46.95;;;17.15;;
20531;SDS011;10424;52.102;8.084;2023-11-21T06:47:16;50.00;;;17.20;;
20531;SDS011;10424;52.102;8.084;2023-11-21T06:49:45;52.67;;;16.17;;
20531;SDS011;10424;52.102;8.084;2023-11-21T06:52:13;53.47;;;17.25;;
20531;SDS011;10424;52.102;8.084;2023-11-21T06:54:40;54.22;;;17.13;;
20531;SDS011;10424;52.102;8.084;2023-11-21T06:57:08;52.97;;;17.33;;
20531;SDS011;10424;52.102;8.084;2023-11-21T06:59:36;46.53;;;16.60;;
20531;SDS011;10424;52.102;8.084;2023-11-21T07:02:03;50.75;;;15.82;;
20531;SDS011;10424;52.102;8.084;2023-11-21T07:04:31;49.92;;;16.38;;
20531;SDS011;10424;52.102;8.084;2023-11-21T07:06:59;52.15;;;16.98;;
20531;SDS011;10424;52.102;8.084;2023-11-21T07:09:27;48.65;;;16.20;;
20531;SDS011;10424;52.102;8.084;2023-11-21T07:11:54;46.75;;;15.32;;
20531;SDS011;10424;52.102;8.084;2023-11-21T07:14:22;53.67;;;16.40;;
20531;SDS011;10424;52.102;8.084;2023-11-21T07:16:51;50.67;;;17.88;;
20531;SDS011;10424;52.102;8.084;2023-11-21T07:19:19;50.83;;;16.35;;
20531;SDS011;10424;52.102;8.084;2023-11-21T07:21:47;49.38;;;16.58;;
20531;SDS011;10424;52.102;8.084;2023-11-21T07:24:16;48.95;;;16.80;;
20531;SDS011;10424;52.102;8.084;2023-11-21T07:26:43;45.78;;;15.68;;
20531;SDS011;10424;52.102;8.084;2023-11-21T07:29:11;44.65;;;14.80;;
20531;SDS011;10424;52.102;8.084;2023-11-21T07:31:38;37.65;;;14.70;;
20531;SDS011;10424;52.102;8.084;2023-11-21T07:34:07;39.70;;;14.57;;
20531;SDS011;10424;52.102;8.084;2023-11-21T07:36:35;35.88;;;13.63;;
20531;SDS011;10424;52.102;8.084;2023-11-21T07:39:02;35.50;;;13.93;;
20531;SDS011;10424;52.102;8.084;2023-11-21T07:41:31;38.38;;;13.60;;
20531;SDS011;10424;52.102;8.084;2023-11-21T07:43:59;39.55;;;14.07;;
20531;SDS011;10424;52.102;8.084;2023-11-21T07:46:26;39.45;;;14.15;;
20531;SDS011;10424;52.102;8.084;2023-11-21T07:48:53;35.42;;;13.82;;
20531;SDS011;10424;52.102;8.084;2023-11-21T07:51:22;39.33;;;13.57;;
20531;SDS011;10424;52.102;8.084;2023-11-21T07:53:49;35.53;;;12.80;;
20531;SDS011;10424;52.102;8.084;2023-11-21T07:56:17;34.10;;;13.13;;
20531;SDS011;10424;52.102;8.084;2023-11-21T07:58:44;36.65;;;13.45;;
20531;SDS011;10424;52.102;8.084;2023-11-21T08:01:11;38.65;;;13.73;;
20531;SDS011;10424;52.102;8.084;2023-11-21T08:03:38;36.55;;;13.40;;
20531;SDS011;10424;52.102;8.084;2023-11-21T08:06:06;35.38;;;13.90;;
20531;SDS011;10424;52.102;8.084;2023-11-21T08:08:35;35.17;;;13.02;;
20531;SDS011;10424;52.102;8.084;2023-11-21T08:11:02;35.78;;;13.02;;
20531;SDS011;10424;52.102;8.084;2023-11-21T08:13:30;35.42;;;14.02;;
20531;SDS011;10424;52.102;8.084;2023-11-21T08:15:57;36.70;;;14.00;;
20531;SDS011;10424;52.102;8.084;2023-11-21T08:18:28;30.75;;;13.63;;
20531;SDS011;10424;52.102;8.084;2023-11-21T08:20:55;34.60;;;13.13;;
20531;SDS011;10424;52.102;8.084;2023-11-21T08:23:23;34.08;;;12.98;;
20531;SDS011;10424;52.102;8.084;2023-11-21T08:25:52;32.00;;;13.07;;
20531;SDS011;10424;52.102;8.084;2023-11-21T08:28:19;31.15;;;12.88;;
20531;SDS011;10424;52.102;8.084;2023-11-21T08:30:47;31.33;;;12.38;;
20531;SDS011;10424;52.102;8.084;2023-11-21T08:33:14;32.80;;;12.80;;
20531;SDS011;10424;52.102;8.084;2023-11-21T08:35:41;27.98;;;11.70;;
20531;SDS011;10424;52.102;8.084;2023-11-21T08:38:09;32.10;;;12.10;;
20531;SDS011;10424;52.102;8.084;2023-11-21T08:40:37;30.10;;;12.05;;
20531;SDS011;10424;52.102;8.084;2023-11-21T08:43:05;27.33;;;11.60;;
20531;SDS011;10424;52.102;8.084;2023-11-21T08:45:33;28.33;;;11.35;;
20531;SDS011;10424;52.102;8.084;2023-11-21T08:48:00;28.05;;;11.88;;
20531;SDS011;10424;52.102;8.084;2023-11-21T08:50:27;28.42;;;10.95;;
20531;SDS011;10424;52.102;8.084;2023-11-21T08:52:55;22.55;;;10.40;;
20531;SDS011;10424;52.102;8.084;2023-11-21T08:55:22;23.33;;;10.63;;
20531;SDS011;10424;52.102;8.084;2023-11-21T08:57:49;23.38;;;9.95;;
20531;SDS011;10424;52.102;8.084;2023-11-21T09:00:18;23.63;;;9.45;;
20531;SDS011;10424;52.102;8.084;2023-11-21T09:02:47;20.27;;;9.60;;
20531;SDS011;10424;52.102;8.084;2023-11-21T09:05:14;21.85;;;9.60;;
20531;SDS011;10424;52.102;8.084;2023-11-21T09:07:42;27.75;;;11.80;;
20531;SDS011;10424;52.102;8.084;2023-11-21T09:10:11;26.08;;;10.93;;
20531;SDS011;10424;52.102;8.084;2023-11-21T09:12:38;30.77;;;13.68;;
20531;SDS011;10424;52.102;8.084;2023-11-21T09:15:08;35.80;;;13.82;;
20531;SDS011;10424;52.102;8.084;2023-11-21T09:17:38;30.52;;;13.05;;
20531;SDS011;10424;52.102;8.084;2023-11-21T09:20:07;33.33;;;14.45;;
20531;SDS011;10424;52.102;8.084;2023-11-21T09:22:35;40.83;;;15.32;;
20531;SDS011;10424;52.102;8.084;2023-11-21T09:25:02;37.28;;;15.07;;
20531;SDS011;10424;52.102;8.084;2023-11-21T09:27:31;34.22;;;14.25;;
20531;SDS011;10424;52.102;8.084;2023-11-21T09:29:58;36.53;;;14.48;;
20531;SDS011;10424;52.102;8.084;2023-11-21T09:32:25;28.23;;;13.05;;
20531;SDS011;10424;52.102;8.084;2023-11-21T09:34:54;35.95;;;15.13;;
20531;SDS011;10424;52.102;8.084;2023-11-21T09:37:23;32.17;;;13.20;;
20531;SDS011;10424;52.102;8.084;2023-11-21T09:39:52;33.83;;;14.10;;
20531;SDS011;10424;52.102;8.084;2023-11-21T09:42:21;34.75;;;14.60;;
20531;SDS011;10424;52.102;8.084;2023-11-21T09:44:53;31.60;;;14.25;;
20531;SDS011;10424;52.102;8.084;2023-11-21T09:47:22;27.63;;;12.90;;
20531;SDS011;10424;52.102;8.084;2023-11-21T09:49:50;23.02;;;10.05;;
20531;SDS011;10424;52.102;8.084;2023-11-21T09:52:22;23.25;;;9.95;;
20531;SDS011;10424;52.102;8.084;2023-11-21T09:54:50;16.98;;;8.18;;
20531;SDS011;10424;52.102;8.084;2023-11-21T09:57:18;13.45;;;6.88;;
20531;SDS011;10424;52.102;8.084;2023-11-21T09:59:46;17.73;;;7.18;;
20531;SDS011;10424;52.102;8.084;2023-11-21T10:02:15;15.43;;;7.07;;
20531;SDS011;10424;52.102;8.084;2023-11-21T10:04:43;12.15;;;6.60;;
20531;SDS011;10424;52.102;8.084;2023-11-21T10:07:11;15.18;;;6.53;;
20531;SDS011;10424;52.102;8.084;2023-11-21T10:09:42;14.15;;;6.47;;
20531;SDS011;10424;52.102;8.084;2023-11-21T10:12:09;13.57;;;6.45;;
20531;SDS011;10424;52.102;8.084;2023-11-21T10:14:37;14.48;;;6.18;;
20531;SDS011;10424;52.102;8.084;2023-11-21T10:17:09;11.82;;;6.40;;
20531;SDS011;10424;52.102;8.084;2023-11-21T10:19:38;12.35;;;6.07;;
20531;SDS011;10424;52.102;8.084;2023-11-21T10:22:06;11.93;;;6.35;;
20531;SDS011;10424;52.102;8.084;2023-11-21T10:24:34;12.05;;;5.47;;
20531;SDS011;10424;52.102;8.084;2023-11-21T10:27:03;11.88;;;6.13;;
20531;SDS011;10424;52.102;8.084;2023-11-21T10:29:31;12.50;;;6.45;;
20531;SDS011;10424;52.102;8.084;2023-11-21T10:32:01;12.15;;;6.43;;
20531;SDS011;10424;52.102;8.084;2023-11-21T10:34:28;11.13;;;5.68;;
20531;SDS011;10424;52.102;8.084;2023-11-21T10:36:56;11.23;;;5.63;;
20531;SDS011;10424;52.102;8.084;2023-11-21T10:39:23;9.30;;;5.40;;
20531;SDS011;10424;52.102;8.084;2023-11-21T10:41:54;9.95;;;5.32;;
20531;SDS011;10424;52.102;8.084;2023-11-21T10:44:23;9.70;;;5.40;;
20531;SDS011;10424;52.102;8.084;2023-11-21T10:46:51;10.95;;;5.53;;
20531;SDS011;10424;52.102;8.084;2023-11-21T10:49:21;11.20;;;5.55;;
20531;SDS011;10424;52.102;8.084;2023-11-21T10:51:49;10.43;;;5.70;;
20531;SDS011;10424;52.102;8.084;2023-11-21T10:54:21;14.57;;;7.22;;
20531;SDS011;10424;52.102;8.084;2023-11-21T10:56:48;16.45;;;8.93;;
20531;SDS011;10424;52.102;8.084;2023-11-21T10:59:16;14.35;;;7.38;;
20531;SDS011;10424;52.102;8.084;2023-11-21T11:01:47;16.27;;;8.07;;
20531;SDS011;10424;52.102;8.084;2023-11-21T11:04:16;13.93;;;7.70;;
20531;SDS011;10424;52.102;8.084;2023-11-21T11:06:45;13.10;;;7.57;;
20531;SDS011;10424;52.102;8.084;2023-11-21T11:09:16;9.55;;;5.55;;
20531;SDS011;10424;52.102;8.084;2023-11-21T11:11:44;8.63;;;5.22;;
20531;SDS011;10424;52.102;8.084;2023-11-21T11:14:11;8.25;;;4.70;;
20531;SDS011;10424;52.102;8.084;2023-11-21T11:16:38;8.18;;;4.95;;
20531;SDS011;10424;52.102;8.084;2023-11-21T11:19:09;8.48;;;5.25;;
20531;SDS011;10424;52.102;8.084;2023-11-21T11:21:42;7.85;;;4.93;;
20531;SDS011;10424;52.102;8.084;2023-11-21T11:26:56;8.27;;;4.57;;
20531;SDS011;10424;52.102;8.084;2023-11-21T11:29:29;13.43;;;8.73;;
20531;SDS011;10424;52.102;8.084;2023-11-21T11:32:02;7.53;;;4.75;;
20531;SDS011;10424;52.102;8.084;2023-11-21T11:34:33;11.50;;;6.68;;
20531;SDS011;10424;52.102;8.084;2023-11-21T11:37:04;11.13;;;6.22;;
20531;SDS011;10424;52.102;8.084;2023-11-21T11:39:34;10.70;;;5.90;;
20531;SDS011;10424;52.102;8.084;2023-11-21T11:42:02;14.85;;;8.02;;
20531;SDS011;10424;52.102;8.084;2023-11-21T11:44:46;13.43;;;7.38;;
20531;SDS011;10424;52.102;8.084;2023-11-21T11:47:16;11.82;;;7.10;;
20531;SDS011;10424;52.102;8.084;2023-11-21T11:49:56;18.90;;;10.50;;
20531;SDS011;10424;52.102;8.084;2023-11-21T11:52:33;15.57;;;9.20;;
20531;SDS011;10424;52.102;8.084;2023-11-21T11:55:01;16.77;;;9.68;;
20531;SDS011;10424;52.102;8.084;2023-11-21T11:57:29;19.33;;;10.57;;
20531;SDS011;10424;52.102;8.084;2023-11-21T12:00:06;17.90;;;9.98;;
20531;SDS011;10424;52.102;8.084;2023-11-21T12:02:35;17.25;;;9.90;;
20531;SDS011;10424;52.102;8.084;2023-11-21T12:05:08;19.50;;;9.63;;
20531;SDS011;10424;52.102;8.084;2023-11-21T12:07:39;18.30;;;10.35;;
20531;SDS011;10424;52.102;8.084;2023-11-21T12:10:08;21.35;;;10.82;;
20531;SDS011;10424;52.102;8.084;2023-11-21T12:12:42;21.27;;;11.88;;
20531;SDS011;10424;52.102;8.084;2023-11-21T12:15:10;18.85;;;11.15;;
20531;SDS011;10424;52.102;8.084;2023-11-21T12:17:38;22.17;;;11.55;;
20531;SDS011;10424;52.102;8.084;2023-11-21T12:20:05;19.35;;;10.65;;
20531;SDS011;10424;52.102;8.084;2023-11-21T12:22:41;25.52;;;12.82;;
20531;SDS011;10424;52.102;8.084;2023-11-21T12:25:08;24.55;;;12.02;;
20531;SDS011;10424;52.102;8.084;2023-11-21T12:27:37;20.88;;;11.00;;
20531;SDS011;10424;52.102;8.084;2023-11-21T12:30:05;23.55;;;10.57;;
20531;SDS011;10424;52.102;8.084;2023-11-21T12:32:38;23.35;;;11.45;;
20531;SDS011;10424;52.102;8.084;2023-11-21T12:35:05;18.95;;;11.00;;
20531;SDS011;10424;52.102;8.084;2023-11-21T12:37:33;18.58;;;10.35;;
20531;SDS011;10424;52.102;8.084;2023-11-21T12:40:01;16.50;;;9.80;;
20531;SDS011;10424;52.102;8.084;2023-11-21T12:42:29;17.15;;;9.45;;
20531;SDS011;10424;52.102;8.084;2023-11-21T12:45:09;17.00;;;9.75;;
20531;SDS011;10424;52.102;8.084;2023-11-21T12:47:41;18.75;;;10.18;;
20531;SDS011;10424;52.102;8.084;2023-11-21T12:50:08;14.95;;;8.73;;
20531;SDS011;10424;52.102;8.084;2023-11-21T12:52:40;12.77;;;7.50;;
20531;SDS011;10424;52.102;8.084;2023-11-21T12:55:15;15.32;;;8.13;;
20531;SDS011;10424;52.102;8.084;2023-11-21T12:57:43;21.67;;;10.95;;
20531;SDS011;10424;52.102;8.084;2023-11-21T13:00:11;13.23;;;7.90;;
20531;SDS011;10424;52.102;8.084;2023-11-21T13:02:50;14.18;;;8.02;;
20531;SDS011;10424;52.102;8.084;2023-11-21T13:05:23;11.43;;;7.13;;
20531;SDS011;10424;52.102;8.084;2023-11-21T13:07:50;14.07;;;8.00;;
20531;SDS011;10424;52.102;8.084;2023-11-21T13:10:21;14.07;;;7.70;;
20531;SDS011;10424;52.102;8.084;2023-11-21T13:12:50;14.88;;;8.98;;
20531;SDS011;10424;52.102;8.084;2023-11-21T13:15:18;17.42;;;12.65;;
20531;SDS011;10424;52.102;8.084;2023-11-21T13:17:46;14.98;;;8.40;;
20531;SDS011;10424;52.102;8.084;2023-11-21T13:20:13;16.80;;;9.80;;
20531;SDS011;10424;52.102;8.084;2023-11-21T13:22:45;13.90;;;9.07;;
20531;SDS011;10424;52.102;8.084;2023-11-21T13:25:14;17.35;;;8.18;;
20531;SDS011;10424;52.102;8.084;2023-11-21T13:27:44;12.43;;;8.13;;
20531;SDS011;10424;52.102;8.084;2023-11-21T13:30:12;13.13;;;7.85;;
20531;SDS011;10424;52.102;8.084;2023-11-21T13:32:42;14.55;;;8.43;;
20531;SDS011;10424;52.102;8.084;2023-11-21T13:35:10;11.93;;;7.35;;
20531;SDS011;10424;52.102;8.084;2023-11-21T13:37:47;13.00;;;7.50;;
20531;SDS011;10424;52.102;8.084;2023-11-21T13:40:19;14.18;;;8.68;;
20531;SDS011;10424;52.102;8.084;2023-11-21T13:42:49;13.23;;;7.88;;
20531;SDS011;10424;52.102;8.084;2023-11-21T13:45:20;13.18;;;7.45;;
20531;SDS011;10424;52.102;8.084;2023-11-21T13:47:48;13.70;;;7.45;;
20531;SDS011;10424;52.102;8.084;2023-11-21T13:50:17;12.30;;;7.50;;
20531;SDS011;10424;52.102;8.084;2023-11-21T13:52:48;14.25;;;7.82;;
20531;SDS011;10424;52.102;8.084;2023-11-21T13:55:18;13.80;;;8.18;;
20531;SDS011;10424;52.102;8.084;2023-11-21T13:57:47;14.07;;;8.13;;
20531;SDS011;10424;52.102;8.084;2023-11-21T14:00:19;14.23;;;7.88;;
20531;SDS011;10424;52.102;8.084;2023-11-21T14:03:03;13.68;;;8.38;;
20531;SDS011;10424;52.102;8.084;2023-11-21T14:05:36;13.68;;;7.78;;
20531;SDS011;10424;52.102;8.084;2023-11-21T14:08:04;11.70;;;7.00;;
20531;SDS011;10424;52.102;8.084;2023-11-21T14:10:31;13.73;;;8.43;;
20531;SDS011;10424;52.102;8.084;2023-11-21T14:13:05;13.38;;;7.53;;
20531;SDS011;10424;52.102;8.084;2023-11-21T14:15:34;12.20;;;7.53;;
20531;SDS011;10424;52.102;8.084;2023-11-21T14:18:06;14.70;;;7.15;;
20531;SDS011;10424;52.102;8.084;2023-11-21T14:20:35;11.88;;;6.45;;
20531;SDS011;10424;52.102;8.084;2023-11-21T14:23:03;12.43;;;7.78;;
20531;SDS011;10424;52.102;8.084;2023-11-21T14:25:31;13.55;;;7.55;;
20531;SDS011;10424;52.102;8.084;2023-11-21T14:27:59;10.30;;;6.68;;
20531;SDS011;10424;52.102;8.084;2023-11-21T14:30:26;12.80;;;7.80;;
20531;SDS011;10424;52.102;8.084;2023-11-21T14:32:58;13.48;;;7.60;;
20531;SDS011;10424;52.102;8.084;2023-11-21T14:35:26;12.27;;;7.40;;